Monthly Average Temp (C) Jan Feb-Dec Mar-Nov Apr May Jun-Aug Jul Sep Oct  
    6.5 8.6 11.35 13.80 16.80 20.3 21.1 18.4 15.5  
    TS NE
Decay  Mixing Zone Length(ft) 2376 4910
K Value Used 1.5
 
Ammonia Daily Prediction Model for Salt Creek Summary of Plant Effluent
Upstream Theresa St. WWTP USGS Gages ( Mass Balance) downstream of Theresa Street WWTP Decay between Theresa Street and IS3 IS3 NH3(mg/l) Decay between Theresa Street and ISD Decay between Theresa Street and BBSO4  BSS04 NH3 (mg/L) Criteria Exceedence  BSS04 NH3 (mg/L) ISD NH3 (mg/L) USGS 27th + L. Salt Creek Northeast WWTP ( Mass Balance) downstream of Northeast WWTP Decay
NE to ISG
Instream Data ISG with Decay Measured Conc Theresa St Northeast Plant
Date Year Month Season Background Conc. Flow cfs Flow (cfs) NH3(mg/l) Flow @27th Street (cfs) Little Salt Cr. (cfs) Daily Average NH3 Prediction (mg/L) Velocity (fps) based on regression Travel Time (days) temperature adjustment based on month Percent Remaining at IS3 After Decay Daily Average NH3 Prediction (mg/L) 30 - day average NH3 Prediction (mg/l) Velocity (fps) based on regression Travel Time (days) temperature adjustment based on month Percent Remaining at ISD After Decay Velocity (fps) based on regression Travel Time (days) temperature adjustment based on month Percent Remaining at BSS04 After Decay Daily Average NH3 Prediction (mg/L)     30 - day average NH3 Prediction (mg/l) Daily Average NH3 Prediction (mg/L) 30 - day average NH3 Prediction (mg/l) NE Background Flow Flow (cfs) NH3(mg/l) total flow
downstream of Northeast
Daily Average NH3 Prediction (mg/L) Marker 30 - day average NH3 Prediction (mg/l) Criteria Exceedence Velocity (fps) based on regression Travel Time (days) temperature adjustment based on month Percent Remaining at BSS08 After Decay SS0 SS1 SS2B Daily Average NH3 Prediction (mg/L) 30 - day average NH3 Prediction (mg/l)                 30-day average
 at ISG or BSS08 with decay
Criteria Exceedence SS3 or IS3 SS4 SS6 SS7 or ISD SS8 SS8C SS8D or ISG SS11   Summer Flow Winter Flow Summer NH3 Winter NH3 Summer Flow Winter Flow Summer NH3 Winter NH3
10/01/1993 1993 10 S 0.09 435.1 29.89 1.70 465 8.9 0.19 1.5423 0.0178 -4.5000 0.9827 0.19 1.5423 0.2480 -4.5000 0.7848 1.5423 0.0676 -4.5000 0.9361 0.1811 1.13 N 0.15 474 12.65 12.32 487 0.47 1.13 N 1.5000 0.0379 -4.5000 0.9637 0.45 1.13 N 29.89 1.70 12.65 12.32
10/02/1993 1993 10 S 0.09 399.1 27.90 1.10 427 8.4 0.16 1.5423 0.0178 -4.5000 0.9827 0.15 1.5423 0.2480 -4.5000 0.7848 1.5423 0.0676 -4.5000 0.9361 0.1460 1.13 N 0.12 435 12.97 12.30 448 0.47 1.13 N 1.5000 0.0379 -4.5000 0.9637 0.46 1.13 N 27.90 1.10 12.97 12.30
10/03/1993 1993 10 S 0.09 367.6 27.44 1.10 395 8 0.16 1.5423 0.0178 -4.5000 0.9827 0.16 1.5423 0.2480 -4.5000 0.7848 1.5423 0.0676 -4.5000 0.9361 0.1499 1.13 N 0.13 403 13.23 11.20 416 0.48 1.13 N 1.5000 0.0379 -4.5000 0.9637 0.46 1.13 N 27.44 1.10 13.23 11.20
10/04/1993 1993 10 S 0.09 354.0 28.96 5.00 383 8.4 0.46 1.5423 0.0178 -4.5000 0.9827 0.45 1.5423 0.2480 -4.5000 0.7848 1.5423 0.0676 -4.5000 0.9361 0.4318 1.13 N 0.36 391 13.04 11.76 404 0.73 1.13 N 1.5000 0.0379 -4.5000 0.9637 0.70 1.13 N 28.96 5.00 13.04 11.76
10/05/1993 1993 10 S 0.09 335.7 28.35 5.00 364 8.4 0.47 1.5423 0.0178 -4.5000 0.9827 0.46 1.5423 0.2480 -4.5000 0.7848 1.5423 0.0676 -4.5000 0.9361 0.4422 1.13 N 0.37 372 13.08 12.32 385 0.78 1.13 N 1.5000 0.0379 -4.5000 0.9637 0.75 1.13 N 28.35 5.00 13.08 12.32
10/06/1993 1993 10 S 0.09 318.0 28.96 5.00 347 8.9 0.50 1.5423 0.0178 -4.5000 0.9827 0.49 1.5423 0.2480 -4.5000 0.7848 1.5423 0.0676 -4.5000 0.9361 0.4678 1.13 N 0.39 356 12.50 13.44 368 0.83 1.13 N 1.5000 0.0379 -4.5000 0.9637 0.80 1.13 N 28.96 5.00 12.50 13.44
10/07/1993 1993 10 S 0.09 308.3 28.74 1.70 337 8.9 0.23 1.5423 0.0178 -4.5000 0.9827 0.22 1.5423 0.2480 -4.5000 0.7848 1.5423 0.0676 -4.5000 0.9361 0.2128 1.13 N 0.18 346 12.04 14.00 358 0.64 1.13 N 1.5000 0.0379 -4.5000 0.9637 0.62 1.13 N 28.74 1.70 12.04 14.00
10/08/1993 1993 10 S 0.09 394.8 29.18 1.70 424 16 0.20 1.5423 0.0178 -4.5000 0.9827 0.20 1.5423 0.2480 -4.5000 0.7848 1.5423 0.0676 -4.5000 0.9361 0.1879 1.13 N 0.16 440 12.47 14.00 452 0.54 1.13 N 1.5000 0.0379 -4.5000 0.9637 0.52 1.13 N 29.18 1.70 12.47 14.00
10/09/1993 1993 10 S 0.09 2,452.9 27.11 1.70 2480 13 0.11 1.5423 0.0178 -4.5000 0.9827 0.11 1.5423 0.2480 -4.5000 0.7848 1.5423 0.0676 -4.5000 0.9361 0.1007 1.13 N 0.08 2493 13.24 12.30 2506 0.15 1.13 N 1.5000 0.0379 -4.5000 0.9637 0.14 1.13 N 27.11 1.70 13.24 12.30
10/10/1993 1993 10 S 0.09 762.9 26.08 1.10 789 11 0.12 1.5423 0.0178 -4.5000 0.9827 0.12 1.5423 0.2480 -4.5000 0.7848 1.5423 0.0676 -4.5000 0.9361 0.1155 1.13 N 0.10 800 12.65 11.20 813 0.27 1.13 N 1.5000 0.0379 -4.5000 0.9637 0.26 1.13 N 26.08 1.10 12.65 11.20
10/11/1993 1993 10 S 0.09 577.7 28.33 6.20 606 11 0.38 1.5423 0.0178 -4.5000 0.9827 0.37 1.5423 0.2480 -4.5000 0.7848 1.5423 0.0676 -4.5000 0.9361 0.3516 1.13 N 0.29 617 13.38 11.20 630 0.53 1.13 N 1.5000 0.0379 -4.5000 0.9637 0.51 1.13 N 28.33 6.20 13.38 11.20
10/12/1993 1993 10 S 0.09 501.7 27.30 8.40 529 11 0.52 1.5423 0.0178 -4.5000 0.9827 0.51 1.5423 0.2480 -4.5000 0.7848 1.5423 0.0676 -4.5000 0.9361 0.4857 1.13 N 0.41 540 12.98 12.30 553 0.69 1.13 N 1.5000 0.0379 -4.5000 0.9637 0.66 1.13 N 27.30 8.40 12.98 12.30
10/13/1993 1993 10 S 0.09 453.5 27.46 9.50 481 12 0.63 1.5423 0.0178 -4.5000 0.9827 0.62 1.5423 0.2480 -4.5000 0.7848 1.5423 0.0676 -4.5000 0.9361 0.5871 1.13 N 0.49 493 13.16 13.40 506 0.83 1.13 N 1.5000 0.0379 -4.5000 0.9637 0.80 1.13 N 27.46 9.50 13.16 13.40
10/14/1993 1993 10 S 0.09 467.5 28.50 8.40 496 12 0.57 1.5423 0.0178 -4.5000 0.9827 0.56 1.5423 0.2480 -4.5000 0.7848 1.5423 0.0676 -4.5000 0.9361 0.5311 1.13 N 0.45 508 13.58 13.40 522 0.78 1.13 N 1.5000 0.0379 -4.5000 0.9637 0.75 1.13 N 28.50 8.40 13.58 13.40
10/15/1993 1993 10 S 0.09 629.7 28.26 6.70 658 27 0.37 1.5423 0.0178 -4.5000 0.9827 0.37 1.5423 0.2480 -4.5000 0.7848 1.5423 0.0676 -4.5000 0.9361 0.3500 1.13 N 0.29 685 13.78 13.40 699 0.55 1.13 N 1.5000 0.0379 -4.5000 0.9637 0.53 1.13 N 28.26 6.70 13.78 13.40
10/16/1993 1993 10 S 0.09 524.4 27.55 4.50 552 14 0.31 1.5423 0.0178 -4.5000 0.9827 0.30 1.5423 0.2480 -4.5000 0.7848 1.5423 0.0676 -4.5000 0.9361 0.2903 1.13 N 0.24 566 13.70 10.10 580 0.48 1.13 N 1.5000 0.0379 -4.5000 0.9637 0.46 1.13 N 27.55 4.50 13.70 10.10
10/17/1993 1993 10 S 0.09 425.9 26.11 3.40 452 12 0.28 1.5423 0.0178 -4.5000 0.9827 0.28 1.5423 0.2480 -4.5000 0.7848 1.5423 0.0676 -4.5000 0.9361 0.2632 1.13 N 0.22 464 14.14 11.80 478 0.56 1.13 N 1.5000 0.0379 -4.5000 0.9637 0.54 1.13 N 26.11 3.40 14.14 11.80
10/18/1993 1993 10 S 0.09 431.4 28.59 8.40 460 14 0.61 1.5423 0.0178 -4.5000 0.9827 0.60 1.5423 0.2480 -4.5000 0.7848 1.5423 0.0676 -4.5000 0.9361 0.5677 1.13 N 0.48 474 14.76 12.30 489 0.83 1.13 N 1.5000 0.0379 -4.5000 0.9637 0.80 1.13 N 28.59 8.40 14.76 12.30
10/19/1993 1993 10 S 0.09 423.3 27.68 7.30 451 15 0.53 1.5423 0.0178 -4.5000 0.9827 0.52 1.5423 0.2480 -4.5000 0.7848 1.5423 0.0676 -4.5000 0.9361 0.4984 1.13 N 0.42 466 14.73 12.90 481 0.80 1.13 N 1.5000 0.0379 -4.5000 0.9637 0.77 1.13 N 27.68 7.30 14.73 12.90
10/20/1993 1993 10 S 0.09 399.2 27.82 9.00 427 13 0.67 1.5423 0.0178 -4.5000 0.9827 0.66 1.5423 0.2480 -4.5000 0.7848 1.5423 0.0676 -4.5000 0.9361 0.6275 1.13 N 0.53 440 11.53 12.90 452 0.84 1.13 N 1.5000 0.0379 -4.5000 0.9637 0.81 1.13 N 27.82 9.00 11.53 12.90
10/21/1993 1993 10 S 0.09 349.9 28.09 9.00 378 13 0.75 1.5423 0.0178 -4.5000 0.9827 0.74 1.5423 0.2480 -4.5000 0.7848 1.5423 0.0676 -4.5000 0.9361 0.7041 1.13 N 0.59 391 9.96 12.30 401 0.88 1.13 N 1.5000 0.0379 -4.5000 0.9637 0.85 1.13 N 28.09 9.00 9.96 12.30
10/22/1993 1993 10 S 0.09 327.2 27.82 7.60 355 12 0.68 1.5423 0.0178 -4.5000 0.9827 0.67 1.5423 0.2480 -4.5000 0.7848 1.5423 0.0676 -4.5000 0.9361 0.6350 1.13 N 0.53 367 10.76 12.90 378 0.88 1.13 N 1.5000 0.0379 -4.5000 0.9637 0.85 1.13 N 27.82 7.60 10.76 12.90
10/23/1993 1993 10 S 0.09 304.0 27.05 5.00 331 11 0.49 1.5423 0.0178 -4.5000 0.9827 0.48 1.5423 0.2480 -4.5000 0.7848 1.5423 0.0676 -4.5000 0.9361 0.4598 1.13 N 0.39 342 10.86 11.80 353 0.74 1.13 N 1.5000 0.0379 -4.5000 0.9637 0.71 1.13 N 27.05 5.00 10.86 11.80
10/24/1993 1993 10 S 0.09 280.6 26.38 4.50 307 11 0.47 1.5423 0.0178 -4.5000 0.9827 0.46 1.5423 0.2480 -4.5000 0.7848 1.5423 0.0676 -4.5000 0.9361 0.4390 1.13 N 0.37 318 10.68 11.80 329 0.74 1.13 N 1.5000 0.0379 -4.5000 0.9637 0.71 1.13 N 26.38 4.50 10.68 11.80
10/25/1993 1993 10 S 0.09 271.7 27.29 9.50 299 11 0.95 1.5423 0.0178 -4.5000 0.9827 0.93 1.5423 0.2480 -4.5000 0.7848 1.5423 0.0676 -4.5000 0.9361 0.8882 1.13 N 0.74 310 11.05 11.20 321 1.10 1.13 N 1.5000 0.0379 -4.5000 0.9637 1.06 1.13 N 27.29 9.50 11.05 11.20
10/26/1993 1993 10 S 0.09 259.5 26.48 8.10 286 11 0.83 1.5423 0.0178 -4.5000 0.9827 0.82 1.5423 0.2480 -4.5000 0.7848 1.5423 0.0676 -4.5000 0.9361 0.7786 1.13 N 0.65 297 11.05 14.00 308 1.13 1.13 Y 1.5000 0.0379 -4.5000 0.9637 1.09 1.13 N 26.48 8.10 11.05 14.00
10/27/1993 1993 10 S 0.09 236.5 26.53 10.60 263 9.9 1.15 1.5403 0.0179 -4.5000 0.9827 1.13 1.5403 0.2484 -4.5000 0.7846 1.5403 0.0677 -4.5000 0.9360 1.0766 1.13 N 0.90 273 11.05 11.20 284 1.30 1.13 Y 1.5000 0.0379 -4.5000 0.9637 1.26 1.13 Y 26.53 10.60 11.05 11.20
10/28/1993 1993 10 S 0.09 231.8 27.17 11.20 259 10 1.26 1.5392 0.0179 -4.5000 0.9827 1.23 1.5392 0.2485 -4.5000 0.7844 1.5392 0.0678 -4.5000 0.9359 1.1749 1.13 Y 0.98 269 11.05 12.60 280 1.44 1.13 Y 1.5000 0.0379 -4.5000 0.9637 1.39 1.13 Y 27.17 11.20 11.05 12.60
10/29/1993 1993 10 S 0.09 222.6 26.41 10.40 249 9.8 1.18 1.5355 0.0179 -4.5000 0.9827 1.16 1.5355 0.2491 -4.5000 0.7840 1.5355 0.0679 -4.5000 0.9358 1.1074 1.13 N 0.93 259 10.75 13.44 270 1.43 1.13 Y 1.5000 0.0379 -4.5000 0.9637 1.37 1.13 Y 26.41 10.40 10.75 13.44
10/30/1993 1993 10 S 0.09 207.8 25.18 9.50 233 9.8 1.11 1.5264 0.0180 -4.5000 0.9826 1.09 0.54 1.5264 0.2506 -4.5000 0.7828 1.5264 0.0683 -4.5000 0.9354 1.0353 1.13 N 0.51 0.87 0.43 243 10.75 13.20 254 1.39 0.78 1.13 Y 1.5000 0.0379 -4.5000 0.9637 1.34 0.75 1.13 Y 25.18 9.50 10.75 13.20
10/31/1993 1993 10 S 0.09 193.2 25.78 4.20 219 9.4 0.57 1.5149 0.0182 -4.5000 0.9824 0.56 0.55 1.5149 0.2525 -4.5000 0.7814 1.5149 0.0689 -4.5000 0.9349 0.5366 1.13 N 0.52 0.45 0.44 228 11.08 12.30 239 1.00 0.79 1.13 N 1.4348 0.0396 -4.5000 0.9620 0.96 0.77 1.13 N 25.78 4.20 11.08 12.30
11/01/1993 1993 11 W 0.41 188.3 26.72 9.00 215 9.4 1.48 1.5110 0.0182 -4.5000 0.9824 1.45 0.59 1.5110 0.2532 -8.6500 0.8466 1.5110 0.0690 -8.6500 0.9556 1.4121 2.896 N 0.56 1.25 0.47 224 11.07 12.21 235 1.77 0.84 2.896 N 1.4339 0.0396 -8.6500 0.9743 1.72 0.81 2.896 N 26.72 9.00 11.07 12.21
11/02/1993 1993 11 W 0.41 214.3 26.73 13.40 241 9.4 1.85 1.5315 0.0180 -4.5000 0.9826 1.82 0.65 1.5315 0.2498 -8.6500 0.8485 1.5315 0.0681 -8.6500 0.9562 1.7698 2.896 N 0.62 1.57 0.52 250 10.83 12.90 261 2.04 0.89 2.896 N 1.5000 0.0379 -8.6500 0.9754 1.99 0.86 2.896 N 26.73 13.40 10.83 12.90
11/03/1993 1993 11 W 0.41 232.2 26.82 15.10 259 9.4 1.93 1.5392 0.0179 -4.5000 0.9827 1.90 0.69 1.5392 0.2485 -8.6500 0.8492 1.5392 0.0678 -8.6500 0.9564 1.8469 2.896 N 0.66 1.64 0.57 268 11.03 14.00 279 2.13 0.94 2.896 N 1.5000 0.0379 -8.6500 0.9754 2.08 0.90 2.896 N 26.82 15.10 11.03 14.00
11/04/1993 1993 11 W 0.41 315.4 26.65 14.00 342 9.4 1.47 1.5423 0.0178 -4.5000 0.9827 1.44 0.73 1.5423 0.2480 -8.6500 0.8495 1.5423 0.0676 -8.6500 0.9565 1.4050 2.896 N 0.70 1.25 0.59 351 11.17 13.44 363 1.62 0.96 2.896 N 1.5000 0.0379 -8.6500 0.9754 1.58 0.93 2.896 N 26.65 14.00 11.17 13.44
11/05/1993 1993 11 W 0.41 334.1 25.91 12.30 360 9 1.27 1.5423 0.0178 -4.5000 0.9827 1.24 0.75 1.5423 0.2480 -8.6500 0.8495 1.5423 0.0676 -8.6500 0.9565 1.2107 2.896 N 0.72 1.08 0.62 369 11.38 23.52 380 1.75 0.99 2.896 N 1.5000 0.0379 -8.6500 0.9754 1.70 0.96 2.896 N 25.91 12.30 11.38 23.52
11/06/1993 1993 11 W 0.41 293.5 25.51 7.80 319 8.3 1.00 1.5423 0.0178 -4.5000 0.9827 0.98 0.78 1.5423 0.2480 -8.6500 0.8495 1.5423 0.0676 -8.6500 0.9565 0.9574 2.896 N 0.75 0.85 0.64 327 11.10 18.50 338 1.43 1.02 2.896 N 1.5000 0.0379 -8.6500 0.9754 1.39 0.99 2.896 N 25.51 7.80 11.10 18.50
11/07/1993 1993 11 W 0.41 233.0 24.98 6.20 258 9 0.97 1.5389 0.0179 -4.5000 0.9827 0.95 0.80 1.5389 0.2486 -8.6500 0.8492 1.5389 0.0678 -8.6500 0.9564 0.9284 2.896 N 0.77 0.82 0.66 267 11.27 12.30 278 1.29 1.05 2.896 N 1.5000 0.0379 -8.6500 0.9754 1.26 1.01 2.896 N 24.98 6.20 11.27 12.30
11/08/1993 1993 11 W 0.41 224.4 25.57 11.80 250 9.5 1.58 1.5360 0.0179 -4.5000 0.9827 1.55 0.85 1.5360 0.2491 -8.6500 0.8489 1.5360 0.0679 -8.6500 0.9563 1.5062 2.896 N 0.82 1.34 0.70 260 11.14 13.40 271 1.83 1.10 2.896 N 1.5000 0.0379 -8.6500 0.9754 1.79 1.07 2.896 N 25.57 11.80 11.14 13.40
11/09/1993 1993 11 W 0.41 226.4 25.57 15.10 252 9.4 1.90 1.5368 0.0179 -4.5000 0.9827 1.87 0.91 1.5368 0.2489 -8.6500 0.8490 1.5368 0.0679 -8.6500 0.9563 1.8177 2.896 N 0.87 1.61 0.75 261 10.88 15.10 272 2.15 1.16 2.896 N 1.5000 0.0379 -8.6500 0.9754 2.10 1.13 2.896 N 25.57 15.10 10.88 15.10
11/10/1993 1993 11 W 0.41 203.1 25.88 15.60 229 8.8 2.13 1.5235 0.0181 -4.5000 0.9825 2.09 0.97 1.5235 0.2511 -8.6500 0.8478 1.5235 0.0685 -8.6500 0.9560 2.0327 2.896 N 0.93 1.80 0.80 238 11.10 15.12 249 2.40 1.23 2.896 N 1.4359 0.0396 -8.6500 0.9743 2.33 1.19 2.896 N 25.88 15.60 11.10 15.12
11/11/1993 1993 11 W 0.41 206.0 27.00 17.30 233 8.9 2.37 1.5264 0.0180 -4.5000 0.9826 2.33 1.03 1.5264 0.2506 -8.6500 0.8480 1.5264 0.0683 -8.6500 0.9560 2.2629 2.896 N 0.99 2.01 0.86 242 11.25 14.28 253 2.55 1.29 2.896 N 1.5000 0.0379 -8.6500 0.9754 2.49 1.25 2.896 N 27.00 17.30 11.25 14.28
11/12/1993 1993 11 W 0.41 273.2 26.77 14.60 300 12 1.68 1.5423 0.0178 -4.5000 0.9827 1.65 1.06 1.5423 0.2480 -8.6500 0.8495 1.5423 0.0676 -8.6500 0.9565 1.6033 2.896 N 1.02 1.42 0.89 312 11.77 18.48 324 2.04 1.33 2.896 N 1.5000 0.0379 -8.6500 0.9754 1.99 1.29 2.896 N 26.77 14.60 11.77 18.48
11/13/1993 1993 11 W 0.41 256.0 25.99 10.60 282 14 1.35 1.5423 0.0178 -4.5000 0.9827 1.33 1.09 1.5423 0.2480 -8.6500 0.8495 1.5423 0.0676 -8.6500 0.9565 1.2904 2.896 N 1.05 1.15 0.91 296 11.70 15.10 308 1.68 1.36 2.896 N 1.5000 0.0379 -8.6500 0.9754 1.64 1.32 2.896 N 25.99 10.60 11.70 15.10
11/14/1993 1993 11 W 0.41 237.4 24.64 8.70 262 11 1.19 1.5401 0.0179 -4.5000 0.9827 1.17 1.11 1.5401 0.2484 -8.6500 0.8493 1.5401 0.0677 -8.6500 0.9564 1.1379 2.896 N 1.08 1.01 0.94 273 11.92 15.10 285 1.60 1.39 2.896 N 1.5000 0.0379 -8.6500 0.9754 1.56 1.35 2.896 N 24.64 8.70 11.92 15.10
11/15/1993 1993 11 W 0.41 208.3 25.73 13.10 234 11 1.81 1.5271 0.0180 -4.5000 0.9826 1.77 1.16 1.5271 0.2505 -8.6500 0.8481 1.5271 0.0683 -8.6500 0.9561 1.7261 2.896 N 1.12 1.53 0.98 245 12.90 14.00 258 2.15 1.45 2.896 N 1.5000 0.0379 -8.6500 0.9754 2.10 1.41 2.896 N 25.73 13.10 12.90 14.00
11/16/1993 1993 11 W 0.41 194.8 25.19 13.50 220 11 1.91 1.5159 0.0181 -4.5000 0.9824 1.88 1.22 1.5159 0.2524 -8.6500 0.8471 1.5159 0.0688 -8.6500 0.9557 1.8245 2.896 N 1.18 1.62 1.03 231 10.77 14.90 242 2.21 1.51 2.896 N 1.4352 0.0396 -8.6500 0.9743 2.15 1.46 2.896 N 25.19 13.50 10.77 14.90
11/17/1993 1993 11 W 0.41 173.8 25.25 15.20 199 11 2.29 1.4922 0.0184 -4.5000 0.9822 2.25 1.27 1.4922 0.2564 -8.6500 0.8448 1.4922 0.0699 -8.6500 0.9551 2.1836 2.896 N 1.23 1.93 1.07 210 11.69 14.17 222 2.58 1.56 2.896 N 1.4287 0.0398 -8.6500 0.9742 2.51 1.52 2.896 N 25.25 15.20 11.69 14.17
11/18/1993 1993 11 W 0.41 139.8 26.24 14.20 166 9.8 2.59 1.4361 0.0191 -4.5000 0.9815 2.54 1.34 1.4361 0.2664 -8.6500 0.8393 1.4361 0.0726 -8.6500 0.9533 2.4688 2.896 N 1.29 2.17 1.13 176 11.93 13.38 188 2.89 1.63 2.896 N 1.4008 0.0406 -8.6500 0.9737 2.81 1.59 2.896 N 26.24 14.20 11.93 13.38
11/19/1993 1993 11 W 0.41 144.6 25.45 12.30 170 9.8 2.19 1.4443 0.0190 -4.5000 0.9816 2.15 1.39 1.4443 0.2649 -8.6500 0.8401 1.4443 0.0722 -8.6500 0.9536 2.0883 2.896 N 1.34 1.84 1.18 180 11.90 13.94 192 2.59 1.69 2.896 N 1.4053 0.0404 -8.6500 0.9738 2.52 1.64 2.896 N 25.45 12.30 11.90 13.94
11/20/1993 1993 11 W 0.41 144.3 24.71 8.60 169 9.8 1.61 1.4423 0.0191 -4.5000 0.9815 1.58 1.42 1.4423 0.2652 -8.6500 0.8399 1.4423 0.0723 -8.6500 0.9535 1.5329 2.896 N 1.37 1.35 1.20 179 12.01 15.12 191 2.22 1.74 2.896 N 1.4043 0.0405 -8.6500 0.9737 2.16 1.69 2.896 N 24.71 8.60 12.01 15.12
11/21/1993 1993 11 W 0.41 143.6 24.41 6.20 168 10 1.25 1.4402 0.0191 -4.5000 0.9815 1.23 1.43 1.4402 0.2656 -8.6500 0.8397 1.4402 0.0724 -8.6500 0.9535 1.1931 2.896 N 1.39 1.05 1.22 178 12.30 14.56 190 1.92 1.77 2.896 N 1.4037 0.0405 -8.6500 0.9737 1.87 1.72 2.896 N 24.41 6.20 12.30 14.56
11/22/1993 1993 11 W 0.41 145.4 25.63 12.30 171 10 2.19 1.4463 0.0190 -4.5000 0.9816 2.15 1.49 1.4463 0.2645 -8.6500 0.8403 1.4463 0.0721 -8.6500 0.9537 2.0904 2.896 N 1.44 1.84 1.27 181 12.71 12.90 194 2.57 1.83 2.896 N 1.4074 0.0404 -8.6500 0.9738 2.50 1.78 2.896 N 25.63 12.30 12.71 12.90
11/23/1993 1993 11 W 0.41 146.8 25.22 16.80 172 9.9 2.81 1.4482 0.0190 -4.5000 0.9816 2.76 1.57 1.4482 0.2642 -8.6500 0.8405 1.4482 0.0720 -8.6500 0.9537 2.6827 2.896 N 1.52 2.36 1.33 182 12.28 14.60 194 3.14 1.91 2.896 Y 1.4079 0.0404 -8.6500 0.9738 3.06 1.86 2.896 Y 25.22 16.80 12.28 14.60
11/24/1993 1993 11 W 0.41 139.3 24.71 16.20 164 9.8 2.79 1.4318 0.0192 -4.5000 0.9814 2.74 1.63 1.4318 0.2672 -8.6500 0.8388 1.4318 0.0729 -8.6500 0.9532 2.6589 2.896 N 1.58 2.34 1.39 174 11.79 14.00 186 3.08 1.98 2.896 Y 1.3982 0.0406 -8.6500 0.9736 3.00 1.92 2.896 Y 24.71 16.20 11.79 14.00
11/25/1993 1993 11 W 0.41 122.0 22.03 12.30 144 9.2 2.23 1.3831 0.0199 -4.5000 0.9808 2.19 1.67 1.3831 0.2766 -8.6500 0.8337 1.3831 0.0754 -8.6500 0.9516 2.1211 2.896 N 1.62 1.86 1.43 153 12.01 15.70 165 2.86 2.03 2.896 N 1.3683 0.0415 -8.6500 0.9731 2.79 1.98 2.896 N 22.03 12.30 12.01 15.70
11/26/1993 1993 11 W 0.41 147.1 23.86 14.00 171 9 2.31 1.4463 0.0190 -4.5000 0.9816 2.26 1.71 1.4463 0.2645 -8.6500 0.8403 1.4463 0.0721 -8.6500 0.9537 2.1996 2.896 N 1.66 1.94 1.46 180 12.65 14.60 193 2.77 2.08 2.896 N 1.4063 0.0404 -8.6500 0.9738 2.70 2.03 2.896 N 23.86 14.00 12.65 14.60
11/27/1993 1993 11 W 0.41 148.9 23.07 12.90 172 9 2.08 1.4482 0.0190 -4.5000 0.9816 2.05 1.74 1.4482 0.2642 -8.6500 0.8405 1.4482 0.0720 -8.6500 0.9537 1.9885 2.896 N 1.69 1.75 1.49 181 12.74 16.80 194 2.74 2.13 2.896 N 1.4074 0.0404 -8.6500 0.9738 2.67 2.07 2.896 N 23.07 12.90 12.74 16.80
11/28/1993 1993 11 W 0.41 156.3 22.68 9.50 179 9.2 1.56 1.4613 0.0188 -4.5000 0.9818 1.53 1.75 1.4613 0.2618 -8.6500 0.8418 1.4613 0.0714 -8.6500 0.9541 1.4900 2.896 N 1.70 1.31 1.50 188 13.07 15.10 201 2.21 2.15 2.896 N 1.4147 0.0402 -8.6500 0.9739 2.15 2.10 2.896 N 22.68 9.50 13.07 15.10
11/29/1993 1993 11 W 0.41 163.3 24.74 17.90 188 9.4 2.71 1.4763 0.0186 -4.5000 0.9820 2.66 1.80 1.4763 0.2591 -8.6500 0.8433 1.4763 0.0707 -8.6500 0.9546 2.5887 2.896 N 1.75 2.29 1.55 197 12.76 16.52 210 3.15 2.21 2.896 Y 1.4218 0.0400 -8.6500 0.9741 3.07 2.15 2.896 Y 24.74 17.90 12.76 16.52
11/30/1993 1993 11 W 0.41 167.4 24.55 15.70 192 9.6 2.37 1.4824 0.0186 -4.5000 0.9820 2.32 1.86 1.4824 0.2581 -8.6500 0.8439 1.4824 0.0704 -8.6500 0.9548 2.2581 2.896 N 1.81 2.00 1.60 202 12.31 15.68 214 2.78 2.27 2.896 N 1.4243 0.0399 -8.6500 0.9741 2.71 2.21 2.896 N 24.55 15.70 12.31 15.68
12/01/1993 1993 12 W 0.41 175.1 24.90 17.90 200 11 2.59 1.4935 0.0184 -4.5000 0.9822 2.54 1.90 1.4935 0.2561 -11.4000 0.8784 1.4935 0.0699 -11.4000 0.9653 2.4975 2.896 N 1.85 2.27 1.63 211 11.77 13.40 223 2.86 2.31 2.896 N 1.4292 0.0398 -11.4000 0.9801 2.80 2.25 2.896 N 24.90 17.90 11.77 13.40
12/02/1993 1993 12 W 0.41 181.4 24.64 16.00 206 13 2.28 1.5011 0.0183 -4.5000 0.9823 2.23 1.91 1.5011 0.2549 -11.4000 0.8790 1.5011 0.0695 -11.4000 0.9654 2.1964 2.896 N 1.86 2.00 1.65 219 11.59 15.70 231 2.69 2.33 2.896 N 1.4324 0.0397 -11.4000 0.9801 2.64 2.27 2.896 N 24.64 16.00 11.59 15.70
12/03/1993 1993 12 W 0.41 181.6 24.36 7.30 206 11 1.22 1.5011 0.0183 -4.5000 0.9823 1.20 1.89 1.5011 0.2549 -11.4000 0.8790 1.5011 0.0695 -11.4000 0.9654 1.1823 2.896 N 1.84 1.08 1.63 217 11.72 15.70 229 1.83 2.32 2.896 N 1.4318 0.0397 -11.4000 0.9801 1.79 2.26 2.896 N 24.36 7.30 11.72 15.70
12/04/1993 1993 12 W 0.41 178.3 24.69 7.30 203 11 1.25 1.4974 0.0184 -4.5000 0.9822 1.23 1.88 1.4974 0.2555 -11.4000 0.8787 1.4974 0.0697 -11.4000 0.9654 1.2048 2.896 N 1.83 1.10 1.62 214 12.09 10.10 226 1.58 2.32 2.896 N 1.4307 0.0397 -11.4000 0.9801 1.55 2.26 2.896 N 24.69 7.30 12.09 10.10
12/05/1993 1993 12 W 0.41 180.7 24.28 6.70 205 11 1.15 1.4999 0.0183 -4.5000 0.9822 1.13 1.88 1.4999 0.2551 -11.4000 0.8789 1.4999 0.0696 -11.4000 0.9654 1.1150 2.896 N 1.83 1.02 1.62 216 12.08 10.60 228 1.52 2.31 2.896 N 1.4315 0.0397 -11.4000 0.9801 1.49 2.25 2.896 N 24.28 6.70 12.08 10.60
12/06/1993 1993 12 W 0.41 171.2 24.81 11.20 196 11 1.78 1.4881 0.0185 -4.5000 0.9821 1.74 1.90 1.4881 0.2571 -11.4000 0.8780 1.4881 0.0701 -11.4000 0.9651 1.7137 2.896 N 1.85 1.56 1.65 207 11.48 11.80 218 2.10 2.33 2.896 N 1.4270 0.0398 -11.4000 0.9800 2.06 2.28 2.896 N 24.81 11.20 11.48 11.80
12/07/1993 1993 12 W 0.41 171.4 24.64 16.20 196 11 2.40 1.4881 0.0185 -4.5000 0.9821 2.35 1.95 1.4881 0.2571 -11.4000 0.8780 1.4881 0.0701 -11.4000 0.9651 2.3118 2.896 N 1.90 2.10 1.69 207 11.66 12.30 219 2.65 2.38 2.896 N 1.4271 0.0398 -11.4000 0.9800 2.59 2.32 2.896 N 24.64 16.20 11.66 12.30
12/08/1993 1993 12 W 0.41 171.3 24.66 18.00 196 11 2.62 1.4881 0.0185 -4.5000 0.9821 2.58 1.98 1.4881 0.2571 -11.4000 0.8780 1.4881 0.0701 -11.4000 0.9651 2.5316 2.896 N 1.93 2.30 1.72 207 11.86 13.40 219 2.90 2.41 2.896 Y 1.4272 0.0398 -11.4000 0.9801 2.85 2.35 2.896 N 24.66 18.00 11.86 13.40
12/09/1993 1993 12 W 0.41 171.1 24.95 18.50 196 11 2.71 1.4881 0.0185 -4.5000 0.9821 2.66 2.01 1.4881 0.2571 -11.4000 0.8780 1.4881 0.0701 -11.4000 0.9651 2.6178 2.896 N 1.96 2.38 1.75 207 12.36 13.70 219 3.02 2.44 2.896 Y 1.4275 0.0398 -11.4000 0.9801 2.96 2.38 2.896 Y 24.95 18.50 12.36 13.70
12/10/1993 1993 12 W 0.41 174.5 24.54 16.20 199 11 2.36 1.4922 0.0184 -4.5000 0.9822 2.32 2.02 1.4922 0.2564 -11.4000 0.8783 1.4922 0.0699 -11.4000 0.9652 2.2755 2.896 N 1.97 2.07 1.76 210 11.83 16.20 222 2.82 2.46 2.896 N 1.4288 0.0398 -11.4000 0.9801 2.77 2.40 2.896 N 24.54 16.20 11.83 16.20
12/11/1993 1993 12 W 0.41 168.6 24.37 10.10 193 10 1.63 1.4839 0.0185 -4.5000 0.9821 1.60 1.99 1.4839 0.2578 -11.4000 0.8777 1.4839 0.0703 -11.4000 0.9650 1.5762 2.896 N 1.94 1.43 1.74 203 11.91 14.00 215 2.13 2.44 2.896 N 1.4249 0.0399 -11.4000 0.9800 2.09 2.38 2.896 N 24.37 10.10 11.91 14.00
12/12/1993 1993 12 W 0.41 169.1 23.85 8.70 193 11 1.43 1.4839 0.0185 -4.5000 0.9821 1.41 1.99 1.4839 0.2578 -11.4000 0.8777 1.4839 0.0703 -11.4000 0.9650 1.3845 2.896 N 1.94 1.26 1.73 204 12.18 14.10 216 1.98 2.44 2.896 N 1.4257 0.0399 -11.4000 0.9800 1.94 2.38 2.896 N 23.85 8.70 12.18 14.10
12/13/1993 1993 12 W 0.41 195.5 25.52 14.00 221 11 1.98 1.5168 0.0181 -4.5000 0.9824 1.94 2.01 1.5168 0.2522 -11.4000 0.8802 1.5168 0.0688 -11.4000 0.9658 1.9115 2.896 N 1.96 1.74 1.75 232 12.51 16.50 245 2.50 2.47 2.896 N 1.4356 0.0396 -11.4000 0.9802 2.45 2.41 2.896 N 25.52 14.00 12.51 16.50
12/14/1993 1993 12 W 0.41 206.5 24.51 15.70 231 12 2.03 1.5250 0.0180 -4.5000 0.9825 2.00 2.03 1.5250 0.2509 -11.4000 0.8808 1.5250 0.0684 -11.4000 0.9660 1.9633 2.896 N 1.99 1.79 1.78 243 12.17 15.90 255 2.46 2.50 2.896 N 1.5000 0.0379 -11.4000 0.9810 2.42 2.44 2.896 N 24.51 15.70 12.17 15.90
12/15/1993 1993 12 W 0.41 207.4 24.64 15.70 232 12 2.03 1.5257 0.0180 -4.5000 0.9825 2.00 2.04 1.5257 0.2507 -11.4000 0.8808 1.5257 0.0684 -11.4000 0.9660 1.9650 2.896 N 1.99 1.79 1.78 244 12.59 17.30 257 2.55 2.51 2.896 N 1.5000 0.0379 -11.4000 0.9810 2.50 2.45 2.896 N 24.64 15.70 12.59 17.30
12/16/1993 1993 12 W 0.41 209.0 24.96 5.50 234 12 0.95 1.5271 0.0180 -4.5000 0.9826 0.94 2.01 1.5271 0.2505 -11.4000 0.8809 1.5271 0.0683 -11.4000 0.9660 0.9206 2.896 N 1.96 0.84 1.76 246 12.40 16.80 258 1.61 2.49 2.896 N 1.5000 0.0379 -11.4000 0.9810 1.57 2.43 2.896 N 24.96 5.50 12.40 16.80
12/17/1993 1993 12 W 0.41 211.2 24.75 9.00 236 13 1.31 1.5284 0.0180 -4.5000 0.9826 1.29 1.98 1.5284 0.2503 -11.4000 0.8810 1.5284 0.0683 -11.4000 0.9660 1.2664 2.896 N 1.93 1.15 1.73 249 12.82 15.60 262 1.86 2.47 2.896 N 1.5000 0.0379 -11.4000 0.9810 1.83 2.41 2.896 N 24.75 9.00 12.82 15.60
12/18/1993 1993 12 W 0.41 208.8 24.20 5.60 233 13 0.95 1.5264 0.0180 -4.5000 0.9826 0.93 1.92 1.5264 0.2506 -11.4000 0.8809 1.5264 0.0683 -11.4000 0.9660 0.9167 2.896 N 1.88 0.84 1.69 246 12.77 15.40 259 1.55 2.42 2.896 N 1.5000 0.0379 -11.4000 0.9810 1.53 2.37 2.896 N 24.20 5.60 12.77 15.40
12/19/1993 1993 12 W 0.41 205.8 23.24 5.60 229 13 0.94 1.5235 0.0181 -4.5000 0.9825 0.92 1.88 1.5235 0.2511 -11.4000 0.8807 1.5235 0.0685 -11.4000 0.9659 0.9047 2.896 N 1.84 0.82 1.65 242 12.69 14.80 255 1.52 2.39 2.896 N 1.5000 0.0379 -11.4000 0.9810 1.49 2.33 2.896 N 23.24 5.60 12.69 14.80
12/20/1993 1993 12 W 0.41 196.6 24.37 9.50 221 13 1.41 1.5168 0.0181 -4.5000 0.9824 1.39 1.88 1.5168 0.2522 -11.4000 0.8802 1.5168 0.0688 -11.4000 0.9658 1.3639 2.896 N 1.84 1.24 1.65 234 13.04 14.60 247 1.95 2.38 2.896 N 1.4358 0.0396 -11.4000 0.9802 1.91 2.32 2.896 N 24.37 9.50 13.04 14.60
12/21/1993 1993 12 W 0.41 177.4 24.58 12.30 202 11 1.86 1.4961 0.0184 -4.5000 0.9822 1.82 1.90 1.4961 0.2557 -11.4000 0.8786 1.4961 0.0697 -11.4000 0.9653 1.7925 2.896 N 1.86 1.63 1.67 213 12.86 14.60 226 2.37 2.39 2.896 N 1.4306 0.0397 -11.4000 0.9801 2.32 2.34 2.896 N 24.58 12.30 12.86 14.60
12/22/1993 1993 12 W 0.41 148.6 23.41 5.60 172 10 1.12 1.4482 0.0190 -4.5000 0.9816 1.10 1.86 1.4482 0.2642 -11.4000 0.8749 1.4482 0.0720 -11.4000 0.9642 1.0763 2.896 N 1.82 0.98 1.64 182 10.52 15.10 193 1.75 2.36 2.896 N 1.4061 0.0404 -11.4000 0.9798 1.71 2.31 2.896 N 23.41 5.60 10.52 15.10
12/23/1993 1993 12 W 0.41 165.4 23.63 7.30 189 9 1.27 1.4778 0.0186 -4.5000 0.9820 1.25 1.81 1.4778 0.2589 -11.4000 0.8772 1.4778 0.0706 -11.4000 0.9649 1.2268 2.896 N 1.77 1.12 1.60 198 10.13 15.70 208 1.83 2.32 2.896 N 1.4203 0.0400 -11.4000 0.9800 1.79 2.27 2.896 N 23.63 7.30 10.13 15.70
12/24/1993 1993 12 W 0.41 170.6 22.35 6.20 193 8.6 1.08 1.4839 0.0185 -4.5000 0.9821 1.06 1.76 1.4839 0.2578 -11.4000 0.8777 1.4839 0.0703 -11.4000 0.9650 1.0429 2.896 N 1.72 0.95 1.55 202 10.11 11.20 212 1.44 2.27 2.896 N 1.4229 0.0399 -11.4000 0.9800 1.41 2.22 2.896 N 22.35 6.20 10.11 11.20
12/25/1993 1993 12 W 0.41 164.9 19.06 4.50 184 8.2 0.83 1.4698 0.0187 -4.5000 0.9819 0.82 1.71 1.4698 0.2603 -11.4000 0.8766 1.4698 0.0710 -11.4000 0.9647 0.8042 2.896 N 1.68 0.73 1.52 192 8.99 11.20 201 1.20 2.21 2.896 N 1.4146 0.0402 -11.4000 0.9799 1.17 2.16 2.896 N 19.06 4.50 8.99 11.20
12/26/1993 1993 12 W 0.41 166.9 20.15 3.10 187 7.8 0.70 1.4747 0.0186 -4.5000 0.9819 0.69 1.66 1.4747 0.2594 -11.4000 0.8770 1.4747 0.0707 -11.4000 0.9648 0.6752 2.896 N 1.63 0.61 1.47 195 9.72 12.90 205 1.20 2.16 2.896 N 1.4175 0.0401 -11.4000 0.9799 1.17 2.11 2.896 N 20.15 3.10 9.72 12.90
12/27/1993 1993 12 W 0.41 139.0 23.02 7.60 162 7.6 1.43 1.4275 0.0193 -4.5000 0.9814 1.40 1.64 1.4275 0.2680 -11.4000 0.8732 1.4275 0.0731 -11.4000 0.9637 1.3797 2.896 N 1.61 1.25 1.46 170 10.81 14.80 180 2.06 2.14 2.896 N 1.3916 0.0408 -11.4000 0.9795 2.02 2.09 2.896 N 23.02 7.60 10.81 14.80
12/28/1993 1993 12 W 0.41 135.0 23.02 8.40 158 7.4 1.57 1.4184 0.0194 -4.5000 0.9812 1.54 1.64 1.4184 0.2697 -11.4000 0.8724 1.4184 0.0736 -11.4000 0.9635 1.5166 2.896 N 1.61 1.37 1.46 165 10.33 14.00 176 2.12 2.13 2.896 N 1.3850 0.0410 -11.4000 0.9794 2.07 2.09 2.896 N 23.02 8.40 10.33 14.00
12/29/1993 1993 12 W 0.41 162.0 22.96 6.70 185 7.4 1.19 1.4715 0.0187 -4.5000 0.9819 1.17 1.59 1.4715 0.2600 -11.4000 0.8767 1.4715 0.0709 -11.4000 0.9648 1.1486 2.896 N 1.56 1.04 1.42 192 10.31 14.60 203 1.73 2.09 2.896 N 1.4159 0.0401 -11.4000 0.9799 1.70 2.04 2.896 N 22.96 6.70 10.31 14.60
12/30/1993 1993 12 W 0.41 151.6 23.40 4.80 175 7.4 1.00 1.4540 0.0189 -4.5000 0.9817 0.98 1.54 1.4540 0.2631 -11.4000 0.8753 1.4540 0.0718 -11.4000 0.9643 0.9614 2.896 N 1.51 0.87 1.38 182 10.19 14.00 193 1.57 2.04 2.896 N 1.4062 0.0404 -11.4000 0.9798 1.54 2.00 2.896 N 23.40 4.80 10.19 14.00
12/31/1993 1993 12 W 0.41 149.7 23.28 6.20 173 7.6 1.19 1.4502 0.0190 -4.5000 0.9816 1.17 1.50 1.4502 0.2638 -11.4000 0.8750 1.4502 0.0719 -11.4000 0.9642 1.1465 2.896 N 1.47 1.04 1.34 181 10.23 13.70 191 1.72 2.01 2.896 N 1.4043 0.0405 -11.4000 0.9797 1.68 1.97 2.896 N 23.28 6.20 10.23 13.70
01/01/1994 1994 1 W 0.41 156.0 21.04 9.00 177 7.7 1.43 1.4577 0.0189 -4.5000 0.9817 1.40 1.47 1.4577 0.2624 -13.5000 0.8970 1.4577 0.0716 -13.5000 0.9708 1.3892 2.896 N 1.44 1.28 1.31 185 9.46 12.30 194 1.82 1.98 2.896 N 1.4079 0.0404 -13.5000 0.9834 1.79 1.94 2.896 N 21.04 9.00 9.46 12.30
01/02/1994 1994 1 W 0.41 155.4 21.58 1.40 177 8.5 0.53 1.4577 0.0189 -4.5000 0.9817 0.52 1.45 1.4577 0.2624 -13.5000 0.8970 1.4577 0.0716 -13.5000 0.9708 0.5152 2.896 N 1.42 0.48 1.29 186 9.77 14.30 195 1.17 1.96 2.896 N 1.4090 0.0403 -13.5000 0.9834 1.15 1.92 2.896 N 21.58 1.40 9.77 14.30
01/03/1994 1994 1 W 0.41 121.4 22.59 5.00 144 8.4 1.13 1.3831 0.0199 -4.5000 0.9808 1.11 1.44 1.3831 0.2766 -13.5000 0.8917 1.3831 0.0754 -13.5000 0.9692 1.0952 2.896 N 1.42 1.01 1.29 152 10.64 15.68 163 1.97 1.97 2.896 N 1.3645 0.0416 -13.5000 0.9829 1.93 1.93 2.896 N 22.59 5.00 10.64 15.68
01/04/1994 1994 1 W 0.41 153.2 22.80 6.70 176 8.2 1.22 1.4558 0.0189 -4.5000 0.9817 1.20 1.44 1.4558 0.2628 -13.5000 0.8969 1.4558 0.0717 -13.5000 0.9707 1.1891 2.896 N 1.42 1.10 1.29 184 10.07 14.84 194 1.81 1.98 2.896 N 1.4080 0.0404 -13.5000 0.9834 1.78 1.94 2.896 N 22.80 6.70 10.07 14.84
01/05/1994 1994 1 W 0.41 149.5 23.55 6.70 173 8 1.27 1.4502 0.0190 -4.5000 0.9816 1.24 1.43 1.4502 0.2638 -13.5000 0.8965 1.4502 0.0719 -13.5000 0.9706 1.2290 2.896 N 1.40 1.14 1.28 181 10.00 15.68 191 1.90 1.97 2.896 N 1.4045 0.0405 -13.5000 0.9834 1.86 1.93 2.896 N 23.55 6.70 10.00 15.68
01/06/1994 1994 1 W 0.41 128.9 23.13 4.50 152 7.4 1.03 1.4040 0.0196 -4.5000 0.9810 1.01 1.38 1.4040 0.2725 -13.5000 0.8933 1.4040 0.0743 -13.5000 0.9697 1.0010 2.896 N 1.36 0.92 1.24 159 7.97 15.70 167 1.63 1.94 2.896 N 1.3720 0.0414 -13.5000 0.9830 1.60 1.90 2.896 N 23.13 4.50 7.97 15.70
01/07/1994 1994 1 W 0.41 86.0 23.00 4.20 109 7 1.21 1.2654 0.0217 -4.5000 0.9790 1.18 1.34 1.2654 0.3023 -13.5000 0.8823 1.2654 0.0824 -13.5000 0.9664 1.1692 2.896 N 1.31 1.07 1.20 116 7.95 15.10 124 1.97 1.91 2.896 N 1.2718 0.0447 -13.5000 0.9817 1.93 1.87 2.896 N 23.00 4.20 7.95 15.10
01/08/1994 1994 1 W 0.41 135.4 22.63 1.50 158 6.4 0.57 1.4184 0.0194 -4.5000 0.9812 0.56 1.27 1.4184 0.2697 -13.5000 0.8943 1.4184 0.0736 -13.5000 0.9700 0.5491 2.896 N 1.25 0.51 1.14 164 7.96 16.02 172 1.22 1.85 2.896 N 1.3800 0.0412 -13.5000 0.9831 1.20 1.81 2.896 N 22.63 1.50 7.96 16.02
01/09/1994 1994 1 W 0.41 114.4 22.59 1.10 137 6.8 0.52 1.3631 0.0202 -4.5000 0.9805 0.51 1.21 1.3631 0.2806 -13.5000 0.8902 1.3631 0.0765 -13.5000 0.9688 0.5074 2.896 N 1.19 0.47 1.08 144 7.96 14.62 152 1.21 1.79 2.896 N 1.3427 0.0423 -13.5000 0.9826 1.19 1.76 2.896 N 22.59 1.10 7.96 14.62
01/10/1994 1994 1 W 0.41 129.1 23.91 3.90 153 7.9 0.96 1.4065 0.0196 -4.5000 0.9811 0.94 1.18 1.4065 0.2720 -13.5000 0.8934 1.4065 0.0742 -13.5000 0.9697 0.9265 2.896 N 1.16 0.85 1.06 161 8.23 9.50 169 1.27 1.76 2.896 N 1.3749 0.0413 -13.5000 0.9830 1.25 1.73 2.896 N 23.91 3.90 8.23 9.50
01/11/1994 1994 1 W 0.41 127.9 24.14 4.50 152 6.8 1.06 1.4040 0.0196 -4.5000 0.9810 1.04 1.17 1.4040 0.2725 -13.5000 0.8933 1.4040 0.0743 -13.5000 0.9697 1.0275 2.896 N 1.15 0.95 1.05 159 7.95 12.90 167 1.52 1.75 2.896 N 1.3710 0.0415 -13.5000 0.9830 1.49 1.72 2.896 N 24.14 4.50 7.95 12.90
01/12/1994 1994 1 W 0.41 133.7 24.35 6.20 158 6.6 1.30 1.4184 0.0194 -4.5000 0.9812 1.28 1.15 1.4184 0.2697 -13.5000 0.8943 1.4184 0.0736 -13.5000 0.9700 1.2631 2.896 N 1.13 1.16 1.03 165 7.96 14.00 173 1.76 1.72 2.896 N 1.3803 0.0412 -13.5000 0.9831 1.73 1.69 2.896 N 24.35 6.20 7.96 14.00
01/13/1994 1994 1 W 0.41 135.5 24.52 9.00 160 6.6 1.73 1.4230 0.0193 -4.5000 0.9813 1.69 1.14 1.4230 0.2688 -13.5000 0.8946 1.4230 0.0733 -13.5000 0.9701 1.6748 2.896 N 1.12 1.54 1.03 167 8.06 16.80 175 2.25 1.72 2.896 N 1.3835 0.0411 -13.5000 0.9831 2.21 1.68 2.896 N 24.52 9.00 8.06 16.80
01/14/1994 1994 1 W 0.41 122.5 23.45 8.60 146 6.4 1.73 1.3885 0.0198 -4.5000 0.9808 1.69 1.13 1.3885 0.2755 -13.5000 0.8921 1.3885 0.0751 -13.5000 0.9694 1.6727 2.896 N 1.11 1.54 1.02 152 7.81 16.20 160 2.25 1.71 2.896 N 1.3594 0.0418 -13.5000 0.9828 2.22 1.68 2.896 N 23.45 8.60 7.81 16.20
01/15/1994 1994 1 W 0.41 116.3 23.68 5.00 140 6.4 1.19 1.3719 0.0200 -4.5000 0.9806 1.16 1.14 1.3719 0.2789 -13.5000 0.8909 1.3719 0.0760 -13.5000 0.9690 1.1495 2.896 N 1.12 1.06 1.02 146 7.84 16.52 154 1.84 1.71 2.896 N 1.3478 0.0422 -13.5000 0.9827 1.81 1.68 2.896 N 23.68 5.00 7.84 16.52
01/16/1994 1994 1 W 0.41 113.0 22.99 5.60 136 6.2 1.29 1.3602 0.0202 -4.5000 0.9804 1.26 1.14 1.3602 0.2813 -13.5000 0.8900 1.3602 0.0767 -13.5000 0.9687 1.2470 2.896 N 1.12 1.15 1.02 142 7.80 16.35 150 1.94 1.72 2.896 N 1.3390 0.0424 -13.5000 0.9826 1.90 1.69 2.896 N 22.99 5.60 7.80 16.35
01/17/1994 1994 1 W 0.41 105.8 24.16 8.40 130 6.2 1.90 1.3415 0.0205 -4.5000 0.9802 1.86 1.17 1.3415 0.2852 -13.5000 0.8886 1.3415 0.0778 -13.5000 0.9683 1.8351 2.896 N 1.15 1.68 1.05 136 8.08 17.40 144 2.56 1.75 2.896 N 1.3261 0.0429 -13.5000 0.9824 2.52 1.72 2.896 N 24.16 8.40 8.08 17.40
01/18/1994 1994 1 W 0.41 102.1 23.93 5.00 126 6 1.28 1.3284 0.0207 -4.5000 0.9800 1.26 1.18 1.3284 0.2880 -13.5000 0.8875 1.3284 0.0785 -13.5000 0.9680 1.2408 2.896 N 1.16 1.14 1.06 132 7.73 17.08 140 2.02 1.77 2.896 N 1.3152 0.0432 -13.5000 0.9823 1.98 1.73 2.896 N 23.93 5.00 7.73 17.08
01/19/1994 1994 1 W 0.41 100.3 24.70 12.80 125 6 2.86 1.3250 0.0208 -4.5000 0.9799 2.80 1.22 1.3250 0.2887 -13.5000 0.8873 1.3250 0.0787 -13.5000 0.9679 2.7663 2.896 N 1.21 2.54 1.11 131 7.98 17.64 139 3.40 1.82 2.896 Y 1.3134 0.0433 -13.5000 0.9822 3.34 1.78 2.896 Y 24.70 12.80 7.98 17.64
01/20/1994 1994 1 W 0.41 106.4 24.60 8.40 131 5.8 1.91 1.3447 0.0205 -4.5000 0.9802 1.87 1.23 1.3447 0.2845 -13.5000 0.8888 1.3447 0.0776 -13.5000 0.9684 1.8498 2.896 N 1.21 1.70 1.11 137 7.90 18.20 145 2.60 1.82 2.896 N 1.3271 0.0428 -13.5000 0.9824 2.55 1.79 2.896 N 24.60 8.40 7.90 18.20
01/21/1994 1994 1 W 0.41 106.6 24.41 6.70 131 6.4 1.58 1.3447 0.0205 -4.5000 0.9802 1.55 1.24 1.3447 0.2845 -13.5000 0.8888 1.3447 0.0776 -13.5000 0.9684 1.5321 2.896 N 1.22 1.41 1.12 137 7.93 16.97 145 2.26 1.84 2.896 N 1.3286 0.0428 -13.5000 0.9824 2.22 1.81 2.896 N 24.41 6.70 7.93 16.97
01/22/1994 1994 1 W 0.41 115.1 23.86 3.90 139 6.8 1.01 1.3690 0.0201 -4.5000 0.9806 0.99 1.23 1.3690 0.2794 -13.5000 0.8907 1.3690 0.0762 -13.5000 0.9689 0.9778 2.896 N 1.22 0.90 1.11 146 7.89 16.80 154 1.72 1.84 2.896 N 1.3467 0.0422 -13.5000 0.9827 1.69 1.80 2.896 N 23.86 3.90 7.89 16.80
01/23/1994 1994 1 W 0.41 124.5 23.47 1.10 148 7.1 0.52 1.3938 0.0197 -4.5000 0.9809 0.51 1.21 1.3938 0.2745 -13.5000 0.8925 1.3938 0.0749 -13.5000 0.9695 0.5036 2.896 N 1.20 0.46 1.10 155 7.86 16.20 163 1.22 1.83 2.896 N 1.3644 0.0417 -13.5000 0.9829 1.20 1.80 2.896 N 23.47 1.10 7.86 16.20
01/24/1994 1994 1 W 0.41 134.2 24.75 5.80 159 6.8 1.25 1.4207 0.0194 -4.5000 0.9813 1.23 1.23 1.4207 0.2693 -13.5000 0.8944 1.4207 0.0734 -13.5000 0.9700 1.2117 2.896 N 1.21 1.12 1.11 166 8.13 15.96 174 1.81 1.85 2.896 N 1.3824 0.0411 -13.5000 0.9831 1.78 1.82 2.896 N 24.75 5.80 8.13 15.96
01/25/1994 1994 1 W 0.41 149.1 23.90 6.10 173 6.6 1.20 1.4502 0.0190 -4.5000 0.9816 1.17 1.24 1.4502 0.2638 -13.5000 0.8965 1.4502 0.0719 -13.5000 0.9706 1.1610 2.896 N 1.23 1.07 1.13 180 7.83 16.07 187 1.70 1.87 2.896 N 1.4004 0.0406 -13.5000 0.9833 1.67 1.83 2.896 N 23.90 6.10 7.83 16.07
01/26/1994 1994 1 W 0.41 149.2 24.78 7.60 174 5.8 1.43 1.4521 0.0189 -4.5000 0.9817 1.41 1.24 1.4521 0.2635 -13.5000 0.8966 1.4521 0.0718 -13.5000 0.9707 1.3917 2.896 N 1.23 1.29 1.13 180 7.70 17.86 187 1.97 1.86 2.896 N 1.4005 0.0406 -13.5000 0.9833 1.93 1.83 2.896 N 24.78 7.60 7.70 17.86
01/27/1994 1994 1 W 0.41 146.6 24.37 7.30 171 5.2 1.39 1.4463 0.0190 -4.5000 0.9816 1.37 1.24 1.4463 0.2645 -13.5000 0.8962 1.4463 0.0721 -13.5000 0.9706 1.3508 2.896 N 1.22 1.25 1.12 176 7.90 19.32 184 2.02 1.86 2.896 N 1.3964 0.0407 -13.5000 0.9833 1.99 1.83 2.896 N 24.37 7.30 7.90 19.32
01/28/1994 1994 1 W 0.41 147.4 24.63 7.30 172 5 1.40 1.4482 0.0190 -4.5000 0.9816 1.37 1.24 1.4482 0.2642 -13.5000 0.8963 1.4482 0.0720 -13.5000 0.9706 1.3555 2.896 N 1.23 1.25 1.13 177 7.79 17.58 185 1.94 1.87 2.896 N 1.3972 0.0407 -13.5000 0.9833 1.91 1.83 2.896 N 24.63 7.30 7.79 17.58
01/29/1994 1994 1 W 0.41 143.9 24.13 2.80 168 4.2 0.75 1.4402 0.0191 -4.5000 0.9815 0.74 1.24 1.4402 0.2656 -13.5000 0.8958 1.4402 0.0724 -13.5000 0.9704 0.7311 2.896 N 1.22 0.67 1.12 172 8.03 18.50 180 1.47 1.86 2.896 N 1.3913 0.0408 -13.5000 0.9832 1.44 1.83 2.896 N 24.13 2.80 8.03 18.50
01/30/1994 1994 1 W 0.41 118.8 23.24 4.00 142 4.4 1.00 1.3776 0.0200 -4.5000 0.9807 0.98 1.23 1.3776 0.2777 -13.5000 0.8913 1.3776 0.0757 -13.5000 0.9691 0.9666 2.896 N 1.22 0.89 1.12 146 7.79 7.30 154 1.21 1.85 2.896 N 1.3477 0.0422 -13.5000 0.9827 1.19 1.82 2.896 N 23.24 4.00 7.79 7.30
01/31/1994 1994 1 W 0.41 125.8 25.17 8.40 151 4.6 1.74 1.4015 0.0196 -4.5000 0.9810 1.71 1.24 1.4015 0.2730 -13.5000 0.8931 1.4015 0.0744 -13.5000 0.9696 1.6889 2.896 N 1.23 1.56 1.13 156 8.06 18.50 164 2.39 1.87 2.896 N 1.3656 0.0416 -13.5000 0.9829 2.35 1.83 2.896 N 25.17 8.40 8.06 18.50
02/01/1994 1994 2 W 0.41 132.2 24.77 9.20 157 4.6 1.80 1.4161 0.0194 -4.5000 0.9812 1.76 1.28 1.4161 0.2702 -11.4000 0.8722 1.4161 0.0737 -11.4000 0.9634 1.7311 2.896 N 1.27 1.57 1.16 162 8.56 17.90 170 2.39 1.91 2.896 N 1.3765 0.0413 -11.4000 0.9793 2.34 1.87 2.896 N 24.77 9.20 8.56 17.90
02/02/1994 1994 2 W 0.41 127.4 24.64 13.40 152 4.7 2.52 1.4040 0.0196 -4.5000 0.9810 2.47 1.33 1.4040 0.2725 -11.4000 0.8712 1.4040 0.0743 -11.4000 0.9631 2.4229 2.896 N 1.31 2.19 1.20 157 8.66 18.50 165 3.05 1.94 2.896 Y 1.3686 0.0415 -11.4000 0.9792 2.98 1.91 2.896 Y 24.64 13.40 8.66 18.50
02/03/1994 1994 2 W 0.41 129.5 24.53 12.90 154 4.8 2.40 1.4089 0.0195 -4.5000 0.9811 2.35 1.37 1.4089 0.2715 -11.4000 0.8716 1.4089 0.0740 -11.4000 0.9632 2.3110 2.896 N 1.35 2.09 1.24 159 8.64 17.40 167 2.88 1.98 2.896 N 1.3721 0.0414 -11.4000 0.9793 2.82 1.94 2.896 N 24.53 12.90 8.64 17.40
02/04/1994 1994 2 W 0.41 128.2 24.79 13.80 153 4.7 2.58 1.4065 0.0196 -4.5000 0.9811 2.53 1.41 1.4065 0.2720 -11.4000 0.8714 1.4065 0.0742 -11.4000 0.9632 2.4845 2.896 N 1.39 2.25 1.27 158 8.75 19.00 166 3.13 2.02 2.896 Y 1.3705 0.0415 -11.4000 0.9792 3.06 1.98 2.896 Y 24.79 13.80 8.75 19.00
02/05/1994 1994 2 W 0.41 129.1 24.86 8.60 154 4.6 1.73 1.4089 0.0195 -4.5000 0.9811 1.70 1.43 1.4089 0.2715 -11.4000 0.8716 1.4089 0.0740 -11.4000 0.9632 1.6684 2.896 N 1.41 1.51 1.29 159 8.63 18.70 167 2.40 2.05 2.896 N 1.3718 0.0414 -11.4000 0.9793 2.35 2.01 2.896 N 24.86 8.60 8.63 18.70
02/06/1994 1994 2 W 0.41 131.8 24.21 6.70 156 4.4 1.39 1.4137 0.0195 -4.5000 0.9812 1.36 1.44 1.4137 0.2706 -11.4000 0.8720 1.4137 0.0738 -11.4000 0.9633 1.3354 2.896 N 1.42 1.21 1.30 160 8.39 17.08 169 2.00 2.05 2.896 N 1.3743 0.0413 -11.4000 0.9793 1.96 2.01 2.896 N 24.21 6.70 8.39 17.08
02/07/1994 1994 2 W 0.41 92.5 24.45 11.80 117 4.2 2.79 1.2965 0.0212 -4.5000 0.9795 2.73 1.51 1.2965 0.2951 -11.4000 0.8613 1.2965 0.0805 -11.4000 0.9601 2.6793 2.896 N 1.49 2.40 1.36 121 8.74 17.40 130 3.41 2.12 2.896 Y 1.2894 0.0441 -11.4000 0.9779 3.34 2.08 2.896 Y 24.45 11.80 8.74 17.40
02/08/1994 1994 2 W 0.41 125.5 24.46 14.30 150 4 2.67 1.3990 0.0197 -4.5000 0.9810 2.62 1.58 1.3990 0.2735 -11.4000 0.8708 1.3990 0.0746 -11.4000 0.9630 2.5757 2.896 N 1.56 2.33 1.42 154 8.53 17.90 163 3.15 2.18 2.896 Y 1.3636 0.0417 -11.4000 0.9791 3.08 2.14 2.896 Y 24.46 14.30 8.53 17.90
02/09/1994 1994 2 W 0.41 116.6 24.42 16.80 141 4.8 3.25 1.3747 0.0200 -4.5000 0.9806 3.19 1.66 1.3747 0.2783 -11.4000 0.8686 1.3747 0.0759 -11.4000 0.9623 3.1258 2.896 Y 1.63 2.82 1.49 146 8.77 19.00 155 3.74 2.27 2.896 Y 1.3485 0.0421 -11.4000 0.9789 3.66 2.22 2.896 Y 24.42 16.80 8.77 19.00
02/10/1994 1994 2 W 0.41 111.1 24.88 17.90 136 5.8 3.61 1.3602 0.0202 -4.5000 0.9804 3.54 1.74 1.3602 0.2813 -11.4000 0.8673 1.3602 0.0767 -11.4000 0.9619 3.4724 2.896 Y 1.71 3.13 1.56 142 8.96 19.04 151 4.08 2.35 2.896 Y 1.3406 0.0424 -11.4000 0.9788 3.99 2.31 2.896 Y 24.88 17.90 8.96 19.04
02/11/1994 1994 2 W 0.41 112.2 24.76 17.40 137 5.4 3.48 1.3631 0.0202 -4.5000 0.9805 3.41 1.81 1.3631 0.2806 -11.4000 0.8676 1.3631 0.0765 -11.4000 0.9620 3.3487 2.896 Y 1.78 3.02 1.62 142 8.56 16.80 151 3.80 2.42 2.896 Y 1.3410 0.0424 -11.4000 0.9788 3.72 2.37 2.896 Y 24.76 17.40 8.56 16.80
02/12/1994 1994 2 W 0.41 113.8 24.21 10.90 138 5 2.25 1.3661 0.0201 -4.5000 0.9805 2.21 1.83 1.3661 0.2800 -11.4000 0.8679 1.3661 0.0764 -11.4000 0.9621 2.1650 2.896 N 1.80 1.95 1.64 143 8.73 20.05 152 2.99 2.44 2.896 Y 1.3426 0.0423 -11.4000 0.9788 2.93 2.40 2.896 Y 24.21 10.90 8.73 20.05
02/13/1994 1994 2 W 0.41 116.5 23.45 7.50 140 5 1.60 1.3719 0.0200 -4.5000 0.9806 1.57 1.82 1.3719 0.2789 -11.4000 0.8684 1.3719 0.0760 -11.4000 0.9622 1.5374 2.896 N 1.79 1.39 1.63 145 8.62 17.36 154 2.28 2.45 2.896 N 1.3466 0.0422 -11.4000 0.9789 2.24 2.40 2.896 N 23.45 7.50 8.62 17.36
02/14/1994 1994 2 W 0.41 139.9 25.05 11.40 165 4.8 2.08 1.4340 0.0192 -4.5000 0.9814 2.04 1.85 1.4340 0.2668 -11.4000 0.8737 1.4340 0.0728 -11.4000 0.9639 2.0036 2.896 N 1.82 1.82 1.66 170 8.88 18.59 179 2.65 2.47 2.896 N 1.3892 0.0409 -11.4000 0.9795 2.60 2.42 2.896 N 25.05 11.40 8.88 18.59
02/15/1994 1994 2 W 0.41 149.9 26.07 14.10 176 5.8 2.44 1.4558 0.0189 -4.5000 0.9817 2.39 1.89 1.4558 0.2628 -11.4000 0.8755 1.4558 0.0717 -11.4000 0.9644 2.3514 2.896 N 1.86 2.13 1.69 182 8.66 15.97 190 2.76 2.50 2.896 N 1.4039 0.0405 -11.4000 0.9797 2.71 2.45 2.896 N 26.07 14.10 8.66 15.97
02/16/1994 1994 2 W 0.41 158.4 25.57 16.60 184 14 2.66 1.4698 0.0187 -4.5000 0.9819 2.61 1.91 1.4698 0.2603 -11.4000 0.8766 1.4698 0.0710 -11.4000 0.9647 2.5658 2.896 N 1.88 2.33 1.71 198 8.91 17.30 207 2.98 2.51 2.896 Y 1.4194 0.0400 -11.4000 0.9799 2.92 2.46 2.896 Y 25.57 16.60 8.91 17.30
02/17/1994 1994 2 W 0.41 202.2 25.85 14.35 228 14 1.99 1.5227 0.0181 -4.5000 0.9825 1.96 1.94 1.5227 0.2512 -11.4000 0.8806 1.5227 0.0685 -11.4000 0.9659 1.9225 2.896 N 1.91 1.75 1.73 242 8.85 23.74 251 2.53 2.53 2.896 N 1.4360 0.0396 -11.4000 0.9802 2.48 2.48 2.896 N 25.85 14.35 8.85 23.74
02/18/1994 1994 2 W 0.41 274.1 25.88 12.10 300 19 1.42 1.5423 0.0178 -4.5000 0.9827 1.39 1.89 1.5423 0.2480 -11.4000 0.8820 1.5423 0.0676 -11.4000 0.9663 1.3708 2.896 N 1.86 1.25 1.69 319 8.90 19.00 328 1.73 2.47 2.896 N 1.5000 0.0379 -11.4000 0.9810 1.70 2.43 2.896 N 25.88 12.10 8.90 19.00
02/19/1994 1994 2 W 0.41 365.1 24.94 9.10 390 21 0.97 1.5423 0.0178 -4.5000 0.9827 0.95 1.86 1.5423 0.2480 -11.4000 0.8820 1.5423 0.0676 -11.4000 0.9663 0.9332 2.896 N 1.83 0.85 1.66 411 8.88 17.80 420 1.21 2.43 2.896 N 1.5000 0.0379 -11.4000 0.9810 1.19 2.38 2.896 N 24.94 9.10 8.88 17.80
02/20/1994 1994 2 W 0.41 292.2 22.82 11.80 315 11 1.24 1.5423 0.0178 -4.5000 0.9827 1.21 1.85 1.5423 0.2480 -11.4000 0.8820 1.5423 0.0676 -11.4000 0.9663 1.1935 2.896 N 1.82 1.09 1.65 326 8.69 22.30 335 1.64 2.41 2.896 N 1.5000 0.0379 -11.4000 0.9810 1.61 2.36 2.896 N 22.82 11.80 8.69 22.30
02/21/1994 1994 2 W 0.41 216.8 25.24 11.60 242 8.7 1.58 1.5321 0.0179 -4.5000 0.9826 1.55 1.87 1.5321 0.2497 -11.4000 0.8813 1.5321 0.0681 -11.4000 0.9661 1.5235 2.896 N 1.84 1.39 1.67 251 8.99 17.90 260 1.96 2.42 2.896 N 1.5000 0.0379 -11.4000 0.9810 1.92 2.37 2.896 N 25.24 11.60 8.99 17.90
02/22/1994 1994 2 W 0.41 197.3 24.65 13.80 222 8.3 1.90 1.5177 0.0181 -4.5000 0.9825 1.86 1.91 1.5177 0.2521 -11.4000 0.8802 1.5177 0.0687 -11.4000 0.9658 1.8322 2.896 N 1.88 1.67 1.71 230 8.54 16.63 239 2.20 2.45 2.896 N 1.4347 0.0396 -11.4000 0.9802 2.16 2.40 2.896 N 24.65 13.80 8.54 16.63
02/23/1994 1994 2 W 0.41 169.5 24.48 14.45 194 7.8 2.18 1.4853 0.0185 -4.5000 0.9821 2.14 1.94 1.4853 0.2576 -11.4000 0.8778 1.4853 0.0702 -11.4000 0.9651 2.1058 2.896 N 1.91 1.92 1.73 202 8.73 17.64 211 2.57 2.47 2.896 N 1.4220 0.0400 -11.4000 0.9800 2.52 2.42 2.896 N 24.48 14.45 8.73 17.64
02/24/1994 1994 2 W 0.41 184.1 24.93 15.10 209 7 2.16 1.5045 0.0183 -4.5000 0.9823 2.12 1.98 1.5045 0.2543 -11.4000 0.8793 1.5045 0.0693 -11.4000 0.9655 2.0877 2.896 N 1.94 1.90 1.76 216 8.83 17.86 225 2.53 2.50 2.896 N 1.4302 0.0397 -11.4000 0.9801 2.48 2.45 2.896 N 24.93 15.10 8.83 17.86
02/25/1994 1994 2 W 0.41 159.6 24.45 9.50 184 6.6 1.62 1.4698 0.0187 -4.5000 0.9819 1.59 1.98 1.4698 0.2603 -11.4000 0.8766 1.4698 0.0710 -11.4000 0.9647 1.5606 2.896 N 1.95 1.42 1.77 191 8.78 16.07 199 2.06 2.51 2.896 N 1.4130 0.0402 -11.4000 0.9799 2.02 2.45 2.896 N 24.45 9.50 8.78 16.07
02/26/1994 1994 2 W 0.41 195.9 24.07 5.60 220 6.6 0.98 1.5159 0.0181 -4.5000 0.9824 0.96 1.97 1.5159 0.2524 -11.4000 0.8801 1.5159 0.0688 -11.4000 0.9658 0.9444 2.896 N 1.93 0.86 1.75 227 8.72 11.80 235 1.27 2.48 2.896 N 1.4339 0.0396 -11.4000 0.9801 1.24 2.43 2.896 N 24.07 5.60 8.72 11.80
02/27/1994 1994 2 W 0.41 201.7 23.30 5.30 225 6.2 0.92 1.5203 0.0181 -4.5000 0.9825 0.90 1.95 1.5203 0.2516 -11.4000 0.8804 1.5203 0.0686 -11.4000 0.9659 0.8851 2.896 N 1.92 0.81 1.74 231 8.50 10.60 240 1.15 2.45 2.896 N 1.4349 0.0396 -11.4000 0.9802 1.13 2.40 2.896 N 23.30 5.30 8.50 10.60
02/28/1994 1994 2 W 0.41 186.6 24.43 9.60 211 7 1.47 1.5068 0.0183 -4.5000 0.9823 1.45 1.98 1.5068 0.2539 -11.4000 0.8794 1.5068 0.0692 -11.4000 0.9656 1.4233 2.896 N 1.94 1.30 1.76 218 8.88 14.90 227 1.83 2.47 2.896 N 1.4311 0.0397 -11.4000 0.9801 1.79 2.42 2.896 N 24.43 9.60 8.88 14.90
03/01/1994 1994 3 W 0.41 197.4 24.57 11.80 222 8 1.67 1.5177 0.0181 -4.5000 0.9825 1.64 2.00 1.5177 0.2521 -8.6500 0.8472 1.5177 0.0687 -8.6500 0.9558 1.5966 2.896 N 1.96 1.42 1.78 230 8.74 17.25 239 1.99 2.49 2.896 N 1.4347 0.0396 -8.6500 0.9743 1.94 2.44 2.896 N 24.57 11.80 8.74 17.25
03/02/1994 1994 3 W 0.41 222.6 25.40 3.90 248 10 0.77 1.5351 0.0179 -4.5000 0.9827 0.75 1.97 1.5351 0.2492 -8.6500 0.8488 1.5351 0.0680 -8.6500 0.9563 0.7339 2.896 N 1.93 0.65 1.75 258 8.89 17.90 267 1.23 2.45 2.896 N 1.5000 0.0379 -8.6500 0.9754 1.20 2.40 2.896 N 25.40 3.90 8.89 17.90
03/03/1994 1994 3 W 0.41 394.0 26.97 14.60 421 131 1.32 1.5423 0.0178 -4.5000 0.9827 1.30 1.95 1.5423 0.2480 -8.6500 0.8495 1.5423 0.0676 -8.6500 0.9565 1.2617 2.896 N 1.91 1.12 1.73 552 9.52 16.80 562 1.39 2.42 2.896 N 1.5000 0.0379 -8.6500 0.9754 1.35 2.37 2.896 N 26.97 14.60 9.52 16.80
03/04/1994 1994 3 W 0.41 1,353.5 26.53 12.30 1380 122 0.64 1.5423 0.0178 -4.5000 0.9827 0.63 1.89 1.5423 0.2480 -8.6500 0.8495 1.5423 0.0676 -8.6500 0.9565 0.6108 2.896 N 1.85 0.54 1.68 1502 9.39 15.40 1511 0.63 2.34 2.896 N 1.5000 0.0379 -8.6500 0.9754 0.62 2.29 2.896 N 26.53 12.30 9.39 15.40
03/05/1994 1994 3 W 0.41 1,093.7 26.33 5.70 1120 57 0.53 1.5423 0.0178 -4.5000 0.9827 0.53 1.83 1.5423 0.2480 -8.6500 0.8495 1.5423 0.0676 -8.6500 0.9565 0.5111 2.896 N 1.79 0.45 1.62 1177 9.42 15.46 1186 0.57 2.26 2.896 N 1.5000 0.0379 -8.6500 0.9754 0.56 2.21 2.896 N 26.33 5.70 9.42 15.46
03/06/1994 1994 3 W 0.41 718.1 25.87 2.80 744 28 0.49 1.5423 0.0178 -4.5000 0.9827 0.48 1.76 1.5423 0.2480 -8.6500 0.8495 1.5423 0.0676 -8.6500 0.9565 0.4716 2.896 N 1.73 0.42 1.56 772 8.90 15.90 781 0.60 2.18 2.896 N 1.5000 0.0379 -8.6500 0.9754 0.58 2.13 2.896 N 25.87 2.80 8.90 15.90
03/07/1994 1994 3 W 0.41 518.1 26.90 9.50 545 18 0.86 1.5423 0.0178 -4.5000 0.9827 0.84 1.73 1.5423 0.2480 -8.6500 0.8495 1.5423 0.0676 -8.6500 0.9565 0.8213 2.896 N 1.70 0.73 1.54 563 9.11 15.70 572 0.97 2.13 2.896 N 1.5000 0.0379 -8.6500 0.9754 0.94 2.09 2.896 N 26.90 9.50 9.11 15.70
03/08/1994 1994 3 W 0.41 411.7 28.28 12.90 440 14 1.21 1.5423 0.0178 -4.5000 0.9827 1.19 1.73 1.5423 0.2480 -8.6500 0.8495 1.5423 0.0676 -8.6500 0.9565 1.1600 2.896 N 1.69 1.03 1.53 454 8.79 16.20 463 1.32 2.11 2.896 N 1.5000 0.0379 -8.6500 0.9754 1.29 2.06 2.896 N 28.28 12.90 8.79 16.20
03/09/1994 1994 3 W 0.41 352.5 28.46 15.70 381 14 1.55 1.5423 0.0178 -4.5000 0.9827 1.53 1.69 1.5423 0.2480 -8.6500 0.8495 1.5423 0.0676 -8.6500 0.9565 1.4848 2.896 N 1.65 1.32 1.49 395 8.87 17.90 404 1.68 2.05 2.896 N 1.5000 0.0379 -8.6500 0.9754 1.64 2.01 2.896 N 28.46 15.70 8.87 17.90
03/10/1994 1994 3 W 0.41 319.2 28.81 13.40 348 13 1.49 1.5423 0.0178 -4.5000 0.9827 1.46 1.65 1.5423 0.2480 -8.6500 0.8495 1.5423 0.0676 -8.6500 0.9565 1.4206 2.896 N 1.61 1.26 1.46 361 9.25 14.60 370 1.59 2.00 2.896 N 1.5000 0.0379 -8.6500 0.9754 1.56 1.96 2.896 N 28.81 13.40 9.25 14.60
03/11/1994 1994 3 W 0.41 294.3 28.73 13.40 323 12 1.57 1.5423 0.0178 -4.5000 0.9827 1.54 1.59 1.5423 0.2480 -8.6500 0.8495 1.5423 0.0676 -8.6500 0.9565 1.4972 2.896 N 1.56 1.33 1.41 335 9.40 20.20 344 1.84 1.93 2.896 N 1.5000 0.0379 -8.6500 0.9754 1.80 1.89 2.896 N 28.73 13.40 9.40 20.20
03/12/1994 1994 3 W 0.41 279.8 28.17 6.70 308 12 0.99 1.5423 0.0178 -4.5000 0.9827 0.97 1.51 1.5423 0.2480 -8.6500 0.8495 1.5423 0.0676 -8.6500 0.9565 0.9424 2.896 N 1.48 0.84 1.33 320 9.18 19.05 329 1.34 1.84 2.896 N 1.5000 0.0379 -8.6500 0.9754 1.31 1.80 2.896 N 28.17 6.70 9.18 19.05
03/13/1994 1994 3 W 0.41 262.2 26.82 3.90 289 12 0.73 1.5423 0.0178 -4.5000 0.9827 0.72 1.42 1.5423 0.2480 -8.6500 0.8495 1.5423 0.0676 -8.6500 0.9565 0.7020 2.896 N 1.39 0.62 1.25 301 8.88 17.90 310 1.12 1.75 2.896 N 1.5000 0.0379 -8.6500 0.9754 1.09 1.72 2.896 N 26.82 3.90 8.88 17.90
03/14/1994 1994 3 W 0.41 250.5 28.47 7.30 279 11 1.11 1.5423 0.0178 -4.5000 0.9827 1.09 1.38 1.5423 0.2480 -8.6500 0.8495 1.5423 0.0676 -8.6500 0.9565 1.0647 2.896 N 1.35 0.95 1.22 290 8.99 17.90 299 1.46 1.70 2.896 N 1.5000 0.0379 -8.6500 0.9754 1.42 1.67 2.896 N 28.47 7.30 8.99 17.90
03/15/1994 1994 3 W 0.41 243.5 29.47 13.40 273 11 1.81 1.5420 0.0178 -4.5000 0.9827 1.78 1.39 1.5420 0.2481 -8.6500 0.8494 1.5420 0.0677 -8.6500 0.9565 1.7334 2.896 N 1.36 1.54 1.22 284 8.72 17.90 293 2.03 1.69 2.896 N 1.5000 0.0379 -8.6500 0.9754 1.98 1.66 2.896 N 29.47 13.40 8.72 17.90
03/16/1994 1994 3 W 0.41 228.0 28.03 14.00 256 11 1.90 1.5383 0.0179 -4.5000 0.9827 1.87 1.38 1.5383 0.2487 -8.6500 0.8491 1.5383 0.0678 -8.6500 0.9564 1.8153 2.896 N 1.35 1.61 1.22 267 8.94 18.76 276 2.17 1.68 2.896 N 1.5000 0.0379 -8.6500 0.9754 2.11 1.64 2.896 N 28.03 14.00 8.94 18.76
03/17/1994 1994 3 W 0.41 215.5 28.53 15.70 244 10 2.20 1.5331 0.0179 -4.5000 0.9826 2.16 1.37 1.5331 0.2495 -8.6500 0.8486 1.5331 0.0680 -8.6500 0.9562 2.1014 2.896 N 1.34 1.86 1.21 254 8.93 17.60 263 2.40 1.67 2.896 N 1.5000 0.0379 -8.6500 0.9754 2.34 1.63 2.896 N 28.53 15.70 8.93 17.60
03/18/1994 1994 3 W 0.41 211.8 27.18 15.10 239 10 2.08 1.5303 0.0180 -4.5000 0.9826 2.04 1.35 1.5303 0.2500 -8.6500 0.8484 1.5303 0.0682 -8.6500 0.9562 1.9896 2.896 N 1.32 1.77 1.19 249 9.32 15.70 258 2.27 1.64 2.896 N 1.5000 0.0379 -8.6500 0.9754 2.21 1.61 2.896 N 27.18 15.10 9.32 15.70
03/19/1994 1994 3 W 0.41 200.5 26.53 16.20 227 9.6 2.26 1.5219 0.0181 -4.5000 0.9825 2.22 1.36 1.5219 0.2514 -8.6500 0.8476 1.5219 0.0686 -8.6500 0.9559 2.1560 2.896 N 1.33 1.91 1.19 237 10.32 21.80 247 2.74 1.65 2.896 N 1.4358 0.0396 -8.6500 0.9743 2.67 1.61 2.896 N 26.53 16.20 10.32 21.80
03/20/1994 1994 3 W 0.41 190.0 25.05 2.80 215 9.2 0.69 1.5110 0.0182 -4.5000 0.9824 0.68 1.34 1.5110 0.2532 -8.6500 0.8466 1.5110 0.0690 -8.6500 0.9556 0.6579 2.896 N 1.31 0.58 1.17 224 9.42 17.90 234 1.28 1.63 2.896 N 1.4334 0.0396 -8.6500 0.9743 1.25 1.60 2.896 N 25.05 2.80 9.42 17.90
03/21/1994 1994 3 W 0.41 185.4 26.59 8.40 212 9.2 1.41 1.5079 0.0182 -4.5000 0.9823 1.39 1.35 1.5079 0.2537 -8.6500 0.8463 1.5079 0.0692 -8.6500 0.9555 1.3491 2.896 N 1.32 1.19 1.18 221 8.93 26.90 230 2.19 1.67 2.896 N 1.4323 0.0397 -8.6500 0.9742 2.14 1.63 2.896 N 26.59 8.40 8.93 26.90
03/22/1994 1994 3 W 0.41 178.8 26.22 4.50 205 9 0.93 1.4999 0.0183 -4.5000 0.9822 0.92 1.34 1.4999 0.2551 -8.6500 0.8456 1.4999 0.0696 -8.6500 0.9553 0.8914 2.896 N 1.31 0.79 1.17 214 8.76 15.70 223 1.38 1.66 2.896 N 1.4292 0.0398 -8.6500 0.9742 1.34 1.62 2.896 N 26.22 4.50 8.76 15.70
03/23/1994 1994 3 W 0.41 170.0 26.98 7.30 197 8.8 1.35 1.4895 0.0185 -4.5000 0.9821 1.33 1.34 1.4895 0.2568 -8.6500 0.8446 1.4895 0.0700 -8.6500 0.9550 1.2927 2.896 N 1.30 1.14 1.16 206 8.96 14.00 215 1.68 1.65 2.896 N 1.4248 0.0399 -8.6500 0.9741 1.64 1.61 2.896 N 26.98 7.30 8.96 14.00
03/24/1994 1994 3 W 0.41 159.0 26.01 7.80 185 8.6 1.45 1.4715 0.0187 -4.5000 0.9819 1.42 1.32 1.4715 0.2600 -8.6500 0.8428 1.4715 0.0709 -8.6500 0.9544 1.3831 2.896 N 1.29 1.22 1.15 194 8.52 15.70 202 1.83 1.64 2.896 N 1.4154 0.0401 -8.6500 0.9739 1.78 1.60 2.896 N 26.01 7.80 8.52 15.70
03/25/1994 1994 3 W 0.41 141.1 25.88 5.60 167 8.4 1.21 1.4382 0.0191 -4.5000 0.9815 1.19 1.29 1.4382 0.2660 -8.6500 0.8395 1.4382 0.0725 -8.6500 0.9534 1.1576 2.896 N 1.26 1.02 1.12 175 8.39 19.04 184 1.84 1.61 2.896 N 1.3960 0.0407 -8.6500 0.9736 1.79 1.57 2.896 N 25.88 5.60 8.39 19.04
03/26/1994 1994 3 W 0.41 140.2 25.77 5.00 166 8.2 1.12 1.4361 0.0191 -4.5000 0.9815 1.10 1.26 1.4361 0.2664 -8.6500 0.8393 1.4361 0.0726 -8.6500 0.9533 1.0703 2.896 N 1.22 0.94 1.09 174 8.69 11.20 183 1.43 1.58 2.896 N 1.3948 0.0407 -8.6500 0.9736 1.39 1.54 2.896 N 25.77 5.00 8.69 11.20
03/27/1994 1994 3 W 0.41 137.7 25.29 1.90 163 8 0.64 1.4297 0.0192 -4.5000 0.9814 0.63 1.22 1.4297 0.2676 -8.6500 0.8386 1.4297 0.0730 -8.6500 0.9531 0.6112 2.896 N 1.19 0.54 1.06 171 8.51 15.12 180 1.23 1.55 2.896 N 1.3903 0.0409 -8.6500 0.9735 1.20 1.51 2.896 N 25.29 1.90 8.51 15.12
03/28/1994 1994 3 W 0.41 133.2 26.83 5.70 160 7.8 1.30 1.4230 0.0193 -4.5000 0.9813 1.27 1.23 1.4230 0.2688 -8.6500 0.8379 1.4230 0.0733 -8.6500 0.9529 1.2361 2.896 N 1.20 1.09 1.07 168 8.71 17.36 177 1.89 1.57 2.896 N 1.3862 0.0410 -8.6500 0.9734 1.84 1.53 2.896 N 26.83 5.70 8.71 17.36
03/29/1994 1994 3 W 0.41 125.5 26.55 5.00 152 7.6 1.21 1.4040 0.0196 -4.5000 0.9810 1.19 1.24 1.4040 0.2725 -8.6500 0.8359 1.4040 0.0743 -8.6500 0.9523 1.1538 2.896 N 1.21 1.01 1.07 160 8.65 12.43 168 1.60 1.58 2.896 N 1.3734 0.0414 -8.6500 0.9732 1.56 1.54 2.896 N 26.55 5.00 8.65 12.43
03/30/1994 1994 3 W 0.41 118.1 26.93 6.70 145 7.6 1.58 1.3858 0.0198 -4.5000 0.9808 1.55 1.25 1.3858 0.2761 -8.6500 0.8340 1.3858 0.0753 -8.6500 0.9517 1.5021 2.896 N 1.21 1.32 1.07 153 8.62 18.48 161 2.23 1.60 2.896 N 1.3613 0.0417 -8.6500 0.9729 2.17 1.56 2.896 N 26.93 6.70 8.62 18.48
03/31/1994 1994 3 W 0.41 119.3 26.69 5.80 146 7.4 1.40 1.3885 0.0198 -4.5000 0.9808 1.37 1.24 1.3885 0.2755 -8.6500 0.8343 1.3885 0.0751 -8.6500 0.9518 1.3279 2.896 N 1.20 1.16 1.07 153 8.71 18.50 162 2.10 1.60 2.896 N 1.3629 0.0417 -8.6500 0.9729 2.04 1.56 2.896 N 26.69 5.80 8.71 18.50
04/01/1994 1994 4 S 0.09 120.8 27.23 6.20 148 7.4 1.21 1.3938 0.0197 -4.5000 0.9809 1.19 1.25 1.3938 0.2745 -6.2000 0.7961 1.3938 0.0749 -6.2000 0.9397 1.1408 1.13 Y 1.22 0.97 1.08 155 8.79 17.92 164 1.87 1.62 1.13 Y 1.3666 0.0416 -6.2000 0.9660 1.81 1.58 1.13 Y 27.23 6.20 8.79 17.92
04/02/1994 1994 4 S 0.09 116.6 25.40 3.90 142 7.2 0.77 1.3776 0.0200 -4.5000 0.9807 0.76 1.23 1.3776 0.2777 -6.2000 0.7940 1.3776 0.0757 -6.2000 0.9390 0.7245 1.13 N 1.20 0.61 1.06 149 8.38 15.10 158 1.38 1.62 1.13 Y 1.3544 0.0420 -6.2000 0.9657 1.34 1.58 1.13 Y 25.40 3.90 8.38 15.10
04/03/1994 1994 4 S 0.09 114.5 22.54 2.20 137 7.2 0.44 1.3631 0.0202 -4.5000 0.9805 0.43 1.23 1.3631 0.2806 -6.2000 0.7920 1.3631 0.0765 -6.2000 0.9384 0.4102 1.13 N 1.19 0.35 1.05 144 7.57 15.70 152 1.11 1.64 1.13 N 1.3427 0.0423 -6.2000 0.9655 1.07 1.60 1.13 N